sensor_id;sensor_type;location;lat;lon;timestamp;P1;durP1;ratioP1;P2;durP2;ratioP2
16669;SDS011;8448;52.034;5.158;2022-08-21T00:00:46;8.93;;;5.80;;
16669;SDS011;8448;52.034;5.158;2022-08-21T00:03:14;6.82;;;5.25;;
16669;SDS011;8448;52.034;5.158;2022-08-21T00:05:42;8.43;;;5.63;;
16669;SDS011;8448;52.034;5.158;2022-08-21T00:08:11;8.88;;;5.30;;
16669;SDS011;8448;52.034;5.158;2022-08-21T00:10:40;8.45;;;5.47;;
16669;SDS011;8448;52.034;5.158;2022-08-21T00:13:09;6.65;;;5.50;;
16669;SDS011;8448;52.034;5.158;2022-08-21T00:15:38;8.45;;;5.82;;
16669;SDS011;8448;52.034;5.158;2022-08-21T00:18:06;7.50;;;5.57;;
16669;SDS011;8448;52.034;5.158;2022-08-21T00:20:37;7.72;;;5.80;;
16669;SDS011;8448;52.034;5.158;2022-08-21T00:23:05;8.30;;;5.40;;
16669;SDS011;8448;52.034;5.158;2022-08-21T00:25:33;7.82;;;5.10;;
16669;SDS011;8448;52.034;5.158;2022-08-21T00:28:03;9.32;;;5.38;;
16669;SDS011;8448;52.034;5.158;2022-08-21T00:30:31;9.30;;;5.15;;
16669;SDS011;8448;52.034;5.158;2022-08-21T00:32:59;7.82;;;5.55;;
16669;SDS011;8448;52.034;5.158;2022-08-21T00:35:28;8.32;;;5.07;;
16669;SDS011;8448;52.034;5.158;2022-08-21T00:37:57;8.50;;;5.32;;
16669;SDS011;8448;52.034;5.158;2022-08-21T00:40:27;9.27;;;5.68;;
16669;SDS011;8448;52.034;5.158;2022-08-21T00:42:57;10.50;;;5.97;;
16669;SDS011;8448;52.034;5.158;2022-08-21T00:45:26;10.45;;;5.47;;
16669;SDS011;8448;52.034;5.158;2022-08-21T00:47:55;9.73;;;6.20;;
16669;SDS011;8448;52.034;5.158;2022-08-21T00:50:23;13.05;;;5.93;;
16669;SDS011;8448;52.034;5.158;2022-08-21T00:52:53;8.50;;;6.00;;
16669;SDS011;8448;52.034;5.158;2022-08-21T00:55:20;9.38;;;6.00;;
16669;SDS011;8448;52.034;5.158;2022-08-21T00:57:49;8.30;;;5.93;;
16669;SDS011;8448;52.034;5.158;2022-08-21T01:00:20;11.15;;;6.47;;
16669;SDS011;8448;52.034;5.158;2022-08-21T01:02:51;9.68;;;5.90;;
16669;SDS011;8448;52.034;5.158;2022-08-21T01:05:18;8.80;;;6.55;;
16669;SDS011;8448;52.034;5.158;2022-08-21T01:07:46;11.43;;;6.75;;
16669;SDS011;8448;52.034;5.158;2022-08-21T01:10:14;8.85;;;7.05;;
16669;SDS011;8448;52.034;5.158;2022-08-21T01:12:41;12.50;;;7.35;;
16669;SDS011;8448;52.034;5.158;2022-08-21T01:15:09;12.70;;;7.88;;
16669;SDS011;8448;52.034;5.158;2022-08-21T01:17:36;9.07;;;6.80;;
16669;SDS011;8448;52.034;5.158;2022-08-21T01:20:07;13.77;;;7.20;;
16669;SDS011;8448;52.034;5.158;2022-08-21T01:22:38;9.68;;;6.88;;
16669;SDS011;8448;52.034;5.158;2022-08-21T01:25:06;10.80;;;7.60;;
16669;SDS011;8448;52.034;5.158;2022-08-21T01:27:37;9.05;;;6.93;;
16669;SDS011;8448;52.034;5.158;2022-08-21T01:30:08;11.10;;;7.35;;
16669;SDS011;8448;52.034;5.158;2022-08-21T01:32:37;11.05;;;7.00;;
16669;SDS011;8448;52.034;5.158;2022-08-21T01:35:05;9.38;;;6.93;;
16669;SDS011;8448;52.034;5.158;2022-08-21T01:37:34;13.43;;;7.80;;
16669;SDS011;8448;52.034;5.158;2022-08-21T01:40:03;8.75;;;6.93;;
16669;SDS011;8448;52.034;5.158;2022-08-21T01:42:31;9.55;;;7.40;;
16669;SDS011;8448;52.034;5.158;2022-08-21T01:44:58;8.93;;;6.88;;
16669;SDS011;8448;52.034;5.158;2022-08-21T01:47:25;9.48;;;7.00;;
16669;SDS011;8448;52.034;5.158;2022-08-21T01:49:53;9.93;;;7.15;;
16669;SDS011;8448;52.034;5.158;2022-08-21T01:52:20;12.00;;;8.10;;
16669;SDS011;8448;52.034;5.158;2022-08-21T01:54:48;12.10;;;7.03;;
16669;SDS011;8448;52.034;5.158;2022-08-21T01:57:17;10.98;;;7.07;;
16669;SDS011;8448;52.034;5.158;2022-08-21T01:59:44;9.75;;;7.20;;
16669;SDS011;8448;52.034;5.158;2022-08-21T02:02:11;8.30;;;6.93;;
16669;SDS011;8448;52.034;5.158;2022-08-21T02:04:38;9.85;;;6.47;;
16669;SDS011;8448;52.034;5.158;2022-08-21T02:07:06;11.20;;;6.85;;
16669;SDS011;8448;52.034;5.158;2022-08-21T02:09:33;10.13;;;7.57;;
16669;SDS011;8448;52.034;5.158;2022-08-21T02:12:00;9.82;;;6.88;;
16669;SDS011;8448;52.034;5.158;2022-08-21T02:14:29;11.45;;;7.28;;
16669;SDS011;8448;52.034;5.158;2022-08-21T02:16:56;9.45;;;7.35;;
16669;SDS011;8448;52.034;5.158;2022-08-21T02:19:24;10.93;;;7.13;;
16669;SDS011;8448;52.034;5.158;2022-08-21T02:21:51;10.18;;;6.72;;
16669;SDS011;8448;52.034;5.158;2022-08-21T02:24:18;11.18;;;6.88;;
16669;SDS011;8448;52.034;5.158;2022-08-21T02:26:45;10.75;;;6.82;;
16669;SDS011;8448;52.034;5.158;2022-08-21T02:29:13;9.88;;;6.72;;
16669;SDS011;8448;52.034;5.158;2022-08-21T02:31:42;9.15;;;6.32;;
16669;SDS011;8448;52.034;5.158;2022-08-21T02:34:09;9.02;;;6.70;;
16669;SDS011;8448;52.034;5.158;2022-08-21T02:36:36;11.75;;;6.95;;
16669;SDS011;8448;52.034;5.158;2022-08-21T02:39:03;9.00;;;6.68;;
16669;SDS011;8448;52.034;5.158;2022-08-21T02:41:31;10.65;;;6.95;;
16669;SDS011;8448;52.034;5.158;2022-08-21T02:43:58;10.02;;;6.90;;
16669;SDS011;8448;52.034;5.158;2022-08-21T02:46:25;9.02;;;6.45;;
16669;SDS011;8448;52.034;5.158;2022-08-21T02:48:54;10.65;;;6.90;;
16669;SDS011;8448;52.034;5.158;2022-08-21T02:51:21;10.25;;;7.00;;
16669;SDS011;8448;52.034;5.158;2022-08-21T02:53:51;10.93;;;7.35;;
16669;SDS011;8448;52.034;5.158;2022-08-21T02:56:19;10.73;;;6.75;;
16669;SDS011;8448;52.034;5.158;2022-08-21T02:58:47;9.55;;;7.47;;
16669;SDS011;8448;52.034;5.158;2022-08-21T03:01:16;10.55;;;7.20;;
16669;SDS011;8448;52.034;5.158;2022-08-21T03:03:44;10.43;;;7.07;;
16669;SDS011;8448;52.034;5.158;2022-08-21T03:06:16;8.85;;;6.70;;
16669;SDS011;8448;52.034;5.158;2022-08-21T03:08:45;10.70;;;6.80;;
16669;SDS011;8448;52.034;5.158;2022-08-21T03:11:13;9.30;;;6.95;;
16669;SDS011;8448;52.034;5.158;2022-08-21T03:13:41;12.68;;;7.05;;
16669;SDS011;8448;52.034;5.158;2022-08-21T03:16:08;12.27;;;7.30;;
16669;SDS011;8448;52.034;5.158;2022-08-21T03:18:36;13.00;;;7.53;;
16669;SDS011;8448;52.034;5.158;2022-08-21T03:21:03;10.63;;;6.90;;
16669;SDS011;8448;52.034;5.158;2022-08-21T03:23:32;10.57;;;7.63;;
16669;SDS011;8448;52.034;5.158;2022-08-21T03:26:00;9.32;;;6.80;;
16669;SDS011;8448;52.034;5.158;2022-08-21T03:28:27;9.70;;;7.22;;
16669;SDS011;8448;52.034;5.158;2022-08-21T03:30:55;10.57;;;7.18;;
16669;SDS011;8448;52.034;5.158;2022-08-21T03:33:22;9.48;;;7.72;;
16669;SDS011;8448;52.034;5.158;2022-08-21T03:35:55;10.43;;;7.10;;
16669;SDS011;8448;52.034;5.158;2022-08-21T03:38:26;10.23;;;7.55;;
16669;SDS011;8448;52.034;5.158;2022-08-21T03:40:57;12.35;;;7.57;;
16669;SDS011;8448;52.034;5.158;2022-08-21T03:43:25;12.13;;;7.28;;
16669;SDS011;8448;52.034;5.158;2022-08-21T03:45:52;9.93;;;7.00;;
16669;SDS011;8448;52.034;5.158;2022-08-21T03:48:20;12.13;;;7.35;;
16669;SDS011;8448;52.034;5.158;2022-08-21T03:50:47;12.88;;;8.07;;
16669;SDS011;8448;52.034;5.158;2022-08-21T03:53:15;9.98;;;7.75;;
16669;SDS011;8448;52.034;5.158;2022-08-21T03:55:43;12.20;;;7.60;;
16669;SDS011;8448;52.034;5.158;2022-08-21T03:58:12;11.13;;;8.05;;
16669;SDS011;8448;52.034;5.158;2022-08-21T04:00:40;12.45;;;7.47;;
16669;SDS011;8448;52.034;5.158;2022-08-21T04:03:07;12.90;;;7.85;;
16669;SDS011;8448;52.034;5.158;2022-08-21T04:05:34;14.07;;;8.65;;
16669;SDS011;8448;52.034;5.158;2022-08-21T04:08:03;14.57;;;8.23;;
16669;SDS011;8448;52.034;5.158;2022-08-21T04:10:32;12.25;;;8.25;;
16669;SDS011;8448;52.034;5.158;2022-08-21T04:13:01;10.65;;;8.25;;
16669;SDS011;8448;52.034;5.158;2022-08-21T04:15:30;10.85;;;8.38;;
16669;SDS011;8448;52.034;5.158;2022-08-21T04:17:57;13.38;;;8.52;;
16669;SDS011;8448;52.034;5.158;2022-08-21T04:20:24;12.57;;;7.97;;
16669;SDS011;8448;52.034;5.158;2022-08-21T04:22:52;12.27;;;8.48;;
16669;SDS011;8448;52.034;5.158;2022-08-21T04:25:20;14.02;;;8.38;;
16669;SDS011;8448;52.034;5.158;2022-08-21T04:27:49;12.75;;;9.57;;
16669;SDS011;8448;52.034;5.158;2022-08-21T04:30:16;14.82;;;9.13;;
16669;SDS011;8448;52.034;5.158;2022-08-21T04:32:46;12.75;;;8.60;;
16669;SDS011;8448;52.034;5.158;2022-08-21T04:35:14;13.50;;;9.40;;
16669;SDS011;8448;52.034;5.158;2022-08-21T04:37:43;16.85;;;9.20;;
16669;SDS011;8448;52.034;5.158;2022-08-21T04:40:11;15.60;;;9.30;;
16669;SDS011;8448;52.034;5.158;2022-08-21T04:42:41;14.38;;;9.68;;
16669;SDS011;8448;52.034;5.158;2022-08-21T04:45:15;13.20;;;9.25;;
16669;SDS011;8448;52.034;5.158;2022-08-21T04:47:46;12.88;;;9.25;;
16669;SDS011;8448;52.034;5.158;2022-08-21T04:50:15;11.10;;;8.68;;
16669;SDS011;8448;52.034;5.158;2022-08-21T04:52:53;12.55;;;8.68;;
16669;SDS011;8448;52.034;5.158;2022-08-21T04:55:20;13.45;;;9.70;;
16669;SDS011;8448;52.034;5.158;2022-08-21T04:57:48;14.70;;;9.40;;
16669;SDS011;8448;52.034;5.158;2022-08-21T05:00:19;11.75;;;8.60;;
16669;SDS011;8448;52.034;5.158;2022-08-21T05:02:47;15.20;;;8.77;;
16669;SDS011;8448;52.034;5.158;2022-08-21T05:05:19;13.35;;;8.88;;
16669;SDS011;8448;52.034;5.158;2022-08-21T05:07:46;12.57;;;8.70;;
16669;SDS011;8448;52.034;5.158;2022-08-21T05:10:14;12.63;;;8.55;;
16669;SDS011;8448;52.034;5.158;2022-08-21T05:12:41;14.57;;;8.98;;
16669;SDS011;8448;52.034;5.158;2022-08-21T05:15:10;13.52;;;9.13;;
16669;SDS011;8448;52.034;5.158;2022-08-21T05:17:38;15.57;;;9.45;;
16669;SDS011;8448;52.034;5.158;2022-08-21T05:20:07;12.07;;;8.85;;
16669;SDS011;8448;52.034;5.158;2022-08-21T05:22:35;11.43;;;9.05;;
16669;SDS011;8448;52.034;5.158;2022-08-21T05:25:02;12.38;;;8.82;;
16669;SDS011;8448;52.034;5.158;2022-08-21T05:27:31;12.93;;;8.18;;
16669;SDS011;8448;52.034;5.158;2022-08-21T05:29:58;12.13;;;8.67;;
16669;SDS011;8448;52.034;5.158;2022-08-21T05:32:26;12.73;;;8.45;;
16669;SDS011;8448;52.034;5.158;2022-08-21T05:34:54;12.38;;;8.98;;
16669;SDS011;8448;52.034;5.158;2022-08-21T05:37:23;13.80;;;8.38;;
16669;SDS011;8448;52.034;5.158;2022-08-21T05:39:50;10.57;;;7.63;;
16669;SDS011;8448;52.034;5.158;2022-08-21T05:42:17;13.85;;;8.73;;
16669;SDS011;8448;52.034;5.158;2022-08-21T05:44:45;15.30;;;8.82;;
16669;SDS011;8448;52.034;5.158;2022-08-21T05:47:12;13.60;;;8.38;;
16669;SDS011;8448;52.034;5.158;2022-08-21T05:49:39;12.13;;;8.05;;
16669;SDS011;8448;52.034;5.158;2022-08-21T05:52:07;15.45;;;8.38;;
16669;SDS011;8448;52.034;5.158;2022-08-21T05:54:37;16.55;;;8.73;;
16669;SDS011;8448;52.034;5.158;2022-08-21T05:57:04;14.60;;;8.30;;
16669;SDS011;8448;52.034;5.158;2022-08-21T05:59:33;14.50;;;7.68;;
16669;SDS011;8448;52.034;5.158;2022-08-21T06:02:01;15.77;;;8.30;;
16669;SDS011;8448;52.034;5.158;2022-08-21T06:04:29;13.65;;;8.30;;
16669;SDS011;8448;52.034;5.158;2022-08-21T06:06:57;14.02;;;8.27;;
16669;SDS011;8448;52.034;5.158;2022-08-21T06:09:24;16.75;;;8.10;;
16669;SDS011;8448;52.034;5.158;2022-08-21T06:11:53;12.43;;;8.18;;
16669;SDS011;8448;52.034;5.158;2022-08-21T06:14:20;13.35;;;7.95;;
16669;SDS011;8448;52.034;5.158;2022-08-21T06:16:47;16.08;;;7.68;;
16669;SDS011;8448;52.034;5.158;2022-08-21T06:19:14;12.35;;;7.25;;
16669;SDS011;8448;52.034;5.158;2022-08-21T06:21:42;13.55;;;7.75;;
16669;SDS011;8448;52.034;5.158;2022-08-21T06:24:09;14.73;;;7.82;;
16669;SDS011;8448;52.034;5.158;2022-08-21T06:26:36;15.45;;;7.70;;
16669;SDS011;8448;52.034;5.158;2022-08-21T06:29:05;17.27;;;7.35;;
16669;SDS011;8448;52.034;5.158;2022-08-21T06:31:35;13.60;;;7.10;;
16669;SDS011;8448;52.034;5.158;2022-08-21T06:34:02;13.15;;;7.15;;
16669;SDS011;8448;52.034;5.158;2022-08-21T06:36:30;15.88;;;7.88;;
16669;SDS011;8448;52.034;5.158;2022-08-21T06:38:57;13.82;;;7.10;;
16669;SDS011;8448;52.034;5.158;2022-08-21T06:41:25;13.73;;;7.18;;
16669;SDS011;8448;52.034;5.158;2022-08-21T06:43:52;13.60;;;7.38;;
16669;SDS011;8448;52.034;5.158;2022-08-21T06:46:22;9.55;;;6.38;;
16669;SDS011;8448;52.034;5.158;2022-08-21T06:48:49;15.35;;;6.72;;
16669;SDS011;8448;52.034;5.158;2022-08-21T06:51:17;11.48;;;6.35;;
16669;SDS011;8448;52.034;5.158;2022-08-21T06:53:44;11.85;;;6.38;;
16669;SDS011;8448;52.034;5.158;2022-08-21T06:56:12;11.35;;;6.35;;
16669;SDS011;8448;52.034;5.158;2022-08-21T06:58:39;10.63;;;5.97;;
16669;SDS011;8448;52.034;5.158;2022-08-21T07:01:06;12.23;;;6.93;;
16669;SDS011;8448;52.034;5.158;2022-08-21T07:03:37;12.85;;;6.30;;
16669;SDS011;8448;52.034;5.158;2022-08-21T07:06:05;15.13;;;7.00;;
16669;SDS011;8448;52.034;5.158;2022-08-21T07:08:34;11.75;;;6.55;;
16669;SDS011;8448;52.034;5.158;2022-08-21T07:11:03;14.73;;;6.22;;
16669;SDS011;8448;52.034;5.158;2022-08-21T07:13:33;12.98;;;6.07;;
16669;SDS011;8448;52.034;5.158;2022-08-21T07:16:01;17.08;;;6.97;;
16669;SDS011;8448;52.034;5.158;2022-08-21T07:18:28;12.20;;;6.90;;
16669;SDS011;8448;52.034;5.158;2022-08-21T07:20:58;13.75;;;6.38;;
16669;SDS011;8448;52.034;5.158;2022-08-21T07:23:29;16.65;;;6.57;;
16669;SDS011;8448;52.034;5.158;2022-08-21T07:25:59;17.00;;;6.95;;
16669;SDS011;8448;52.034;5.158;2022-08-21T07:28:27;14.55;;;6.63;;
16669;SDS011;8448;52.034;5.158;2022-08-21T07:30:56;12.27;;;6.07;;
16669;SDS011;8448;52.034;5.158;2022-08-21T07:33:25;11.30;;;6.40;;
16669;SDS011;8448;52.034;5.158;2022-08-21T07:35:53;13.68;;;6.53;;
16669;SDS011;8448;52.034;5.158;2022-08-21T07:38:22;14.73;;;6.47;;
16669;SDS011;8448;52.034;5.158;2022-08-21T07:40:50;15.07;;;6.63;;
16669;SDS011;8448;52.034;5.158;2022-08-21T07:43:18;17.05;;;6.35;;
16669;SDS011;8448;52.034;5.158;2022-08-21T07:45:46;12.40;;;6.70;;
16669;SDS011;8448;52.034;5.158;2022-08-21T07:48:14;9.40;;;5.65;;
16669;SDS011;8448;52.034;5.158;2022-08-21T07:50:42;14.13;;;6.63;;
16669;SDS011;8448;52.034;5.158;2022-08-21T07:53:09;10.90;;;5.80;;
16669;SDS011;8448;52.034;5.158;2022-08-21T07:55:38;13.50;;;5.95;;
16669;SDS011;8448;52.034;5.158;2022-08-21T07:58:05;11.57;;;5.57;;
16669;SDS011;8448;52.034;5.158;2022-08-21T08:00:32;17.10;;;7.20;;
16669;SDS011;8448;52.034;5.158;2022-08-21T08:03:00;10.00;;;6.03;;
16669;SDS011;8448;52.034;5.158;2022-08-21T08:05:28;10.35;;;5.55;;
16669;SDS011;8448;52.034;5.158;2022-08-21T08:07:57;15.45;;;6.10;;
16669;SDS011;8448;52.034;5.158;2022-08-21T08:10:24;13.70;;;5.85;;
16669;SDS011;8448;52.034;5.158;2022-08-21T08:12:53;12.38;;;5.93;;
16669;SDS011;8448;52.034;5.158;2022-08-21T08:15:22;12.50;;;5.95;;
16669;SDS011;8448;52.034;5.158;2022-08-21T08:17:51;11.77;;;5.85;;
16669;SDS011;8448;52.034;5.158;2022-08-21T08:20:19;12.15;;;6.00;;
16669;SDS011;8448;52.034;5.158;2022-08-21T08:22:48;12.00;;;5.75;;
16669;SDS011;8448;52.034;5.158;2022-08-21T08:25:16;10.23;;;5.50;;
16669;SDS011;8448;52.034;5.158;2022-08-21T08:27:43;10.65;;;5.32;;
16669;SDS011;8448;52.034;5.158;2022-08-21T08:30:13;11.30;;;5.43;;
16669;SDS011;8448;52.034;5.158;2022-08-21T08:32:43;11.88;;;5.68;;
16669;SDS011;8448;52.034;5.158;2022-08-21T08:35:10;13.60;;;5.63;;
16669;SDS011;8448;52.034;5.158;2022-08-21T08:37:38;14.05;;;6.13;;
16669;SDS011;8448;52.034;5.158;2022-08-21T08:40:06;11.25;;;5.30;;
16669;SDS011;8448;52.034;5.158;2022-08-21T08:42:37;11.73;;;5.45;;
16669;SDS011;8448;52.034;5.158;2022-08-21T08:45:05;14.05;;;5.47;;
16669;SDS011;8448;52.034;5.158;2022-08-21T08:47:36;10.40;;;5.55;;
16669;SDS011;8448;52.034;5.158;2022-08-21T08:50:06;10.27;;;5.43;;
16669;SDS011;8448;52.034;5.158;2022-08-21T08:52:36;14.07;;;5.70;;
16669;SDS011;8448;52.034;5.158;2022-08-21T08:55:08;11.35;;;5.82;;
16669;SDS011;8448;52.034;5.158;2022-08-21T08:57:37;10.30;;;5.20;;
16669;SDS011;8448;52.034;5.158;2022-08-21T09:00:09;17.00;;;6.05;;
16669;SDS011;8448;52.034;5.158;2022-08-21T09:02:41;10.18;;;4.85;;
16669;SDS011;8448;52.034;5.158;2022-08-21T09:05:20;12.82;;;5.22;;
16669;SDS011;8448;52.034;5.158;2022-08-21T09:07:53;12.57;;;5.18;;
16669;SDS011;8448;52.034;5.158;2022-08-21T09:10:30;7.82;;;4.13;;
16669;SDS011;8448;52.034;5.158;2022-08-21T09:13:04;8.57;;;4.32;;
16669;SDS011;8448;52.034;5.158;2022-08-21T09:15:39;11.85;;;4.30;;
16669;SDS011;8448;52.034;5.158;2022-08-21T09:18:17;11.52;;;4.05;;
16669;SDS011;8448;52.034;5.158;2022-08-21T09:20:58;10.05;;;4.22;;
16669;SDS011;8448;52.034;5.158;2022-08-21T09:23:36;10.80;;;4.45;;
16669;SDS011;8448;52.034;5.158;2022-08-21T09:26:12;11.57;;;4.03;;
16669;SDS011;8448;52.034;5.158;2022-08-21T09:28:40;9.15;;;4.05;;
16669;SDS011;8448;52.034;5.158;2022-08-21T09:31:08;10.23;;;4.22;;
16669;SDS011;8448;52.034;5.158;2022-08-21T09:33:43;9.38;;;3.70;;
16669;SDS011;8448;52.034;5.158;2022-08-21T09:36:10;8.23;;;3.78;;
16669;SDS011;8448;52.034;5.158;2022-08-21T09:38:37;10.10;;;4.00;;
16669;SDS011;8448;52.034;5.158;2022-08-21T09:41:05;8.85;;;3.90;;
16669;SDS011;8448;52.034;5.158;2022-08-21T09:43:35;10.63;;;3.85;;
16669;SDS011;8448;52.034;5.158;2022-08-21T09:46:05;9.32;;;3.55;;
16669;SDS011;8448;52.034;5.158;2022-08-21T09:48:39;10.52;;;3.75;;
16669;SDS011;8448;52.034;5.158;2022-08-21T09:51:11;10.30;;;4.03;;
16669;SDS011;8448;52.034;5.158;2022-08-21T09:53:43;8.75;;;3.75;;
16669;SDS011;8448;52.034;5.158;2022-08-21T09:56:17;8.90;;;3.53;;
16669;SDS011;8448;52.034;5.158;2022-08-21T09:59:12;8.93;;;3.28;;
16669;SDS011;8448;52.034;5.158;2022-08-21T10:01:42;6.85;;;2.95;;
16669;SDS011;8448;52.034;5.158;2022-08-21T10:04:12;13.80;;;3.63;;
16669;SDS011;8448;52.034;5.158;2022-08-21T10:06:39;5.15;;;2.83;;
16669;SDS011;8448;52.034;5.158;2022-08-21T10:09:08;7.97;;;3.42;;
16669;SDS011;8448;52.034;5.158;2022-08-21T10:11:37;7.47;;;3.25;;
16669;SDS011;8448;52.034;5.158;2022-08-21T10:14:08;8.00;;;3.00;;
16669;SDS011;8448;52.034;5.158;2022-08-21T10:16:43;7.47;;;2.80;;
16669;SDS011;8448;52.034;5.158;2022-08-21T10:19:22;7.78;;;2.17;;
16669;SDS011;8448;52.034;5.158;2022-08-21T10:21:59;7.60;;;2.63;;
16669;SDS011;8448;52.034;5.158;2022-08-21T10:24:31;7.47;;;2.53;;
16669;SDS011;8448;52.034;5.158;2022-08-21T10:27:05;8.30;;;2.30;;
16669;SDS011;8448;52.034;5.158;2022-08-21T10:29:39;4.35;;;2.05;;
16669;SDS011;8448;52.034;5.158;2022-08-21T10:32:14;3.50;;;1.90;;
16669;SDS011;8448;52.034;5.158;2022-08-21T10:34:51;6.30;;;2.55;;
16669;SDS011;8448;52.034;5.158;2022-08-21T10:37:25;8.93;;;2.67;;
16669;SDS011;8448;52.034;5.158;2022-08-21T10:40:02;4.88;;;2.33;;
16669;SDS011;8448;52.034;5.158;2022-08-21T10:42:36;5.72;;;2.25;;
16669;SDS011;8448;52.034;5.158;2022-08-21T10:45:09;5.40;;;2.22;;
16669;SDS011;8448;52.034;5.158;2022-08-21T10:47:45;5.85;;;1.92;;
16669;SDS011;8448;52.034;5.158;2022-08-21T10:50:19;5.03;;;2.03;;
16669;SDS011;8448;52.034;5.158;2022-08-21T10:52:57;5.18;;;1.80;;
16669;SDS011;8448;52.034;5.158;2022-08-21T10:55:35;6.85;;;2.00;;
16669;SDS011;8448;52.034;5.158;2022-08-21T10:58:08;5.25;;;2.25;;
16669;SDS011;8448;52.034;5.158;2022-08-21T11:00:39;6.70;;;2.05;;
16669;SDS011;8448;52.034;5.158;2022-08-21T11:03:13;8.32;;;2.10;;
16669;SDS011;8448;52.034;5.158;2022-08-21T11:05:45;9.05;;;2.17;;
16669;SDS011;8448;52.034;5.158;2022-08-21T11:08:15;4.75;;;2.17;;
16669;SDS011;8448;52.034;5.158;2022-08-21T11:10:46;5.60;;;2.45;;
16669;SDS011;8448;52.034;5.158;2022-08-21T11:13:16;6.53;;;2.15;;
16669;SDS011;8448;52.034;5.158;2022-08-21T11:15:48;6.50;;;2.17;;
16669;SDS011;8448;52.034;5.158;2022-08-21T11:18:24;5.65;;;2.47;;
16669;SDS011;8448;52.034;5.158;2022-08-21T11:20:59;4.65;;;2.40;;
16669;SDS011;8448;52.034;5.158;2022-08-21T11:23:33;5.72;;;2.20;;
16669;SDS011;8448;52.034;5.158;2022-08-21T11:26:07;6.95;;;2.25;;
16669;SDS011;8448;52.034;5.158;2022-08-21T11:28:38;6.22;;;2.00;;
16669;SDS011;8448;52.034;5.158;2022-08-21T11:31:12;5.78;;;2.38;;
16669;SDS011;8448;52.034;5.158;2022-08-21T11:33:49;6.32;;;1.88;;
16669;SDS011;8448;52.034;5.158;2022-08-21T11:36:27;4.65;;;1.88;;
16669;SDS011;8448;52.034;5.158;2022-08-21T11:39:06;5.35;;;2.00;;
16669;SDS011;8448;52.034;5.158;2022-08-21T11:41:43;6.28;;;2.10;;
16669;SDS011;8448;52.034;5.158;2022-08-21T11:44:15;4.88;;;2.08;;
16669;SDS011;8448;52.034;5.158;2022-08-21T11:46:48;4.70;;;2.10;;
16669;SDS011;8448;52.034;5.158;2022-08-21T11:49:29;5.40;;;2.40;;
16669;SDS011;8448;52.034;5.158;2022-08-21T11:52:12;6.15;;;2.05;;
16669;SDS011;8448;52.034;5.158;2022-08-21T11:54:44;6.80;;;2.30;;
16669;SDS011;8448;52.034;5.158;2022-08-21T11:57:16;5.45;;;2.40;;
16669;SDS011;8448;52.034;5.158;2022-08-21T11:59:51;6.05;;;2.33;;
16669;SDS011;8448;52.034;5.158;2022-08-21T12:02:21;7.25;;;2.85;;
16669;SDS011;8448;52.034;5.158;2022-08-21T12:04:54;5.55;;;2.00;;
16669;SDS011;8448;52.034;5.158;2022-08-21T12:07:32;7.03;;;2.53;;
16669;SDS011;8448;52.034;5.158;2022-08-21T12:10:03;8.30;;;2.30;;
16669;SDS011;8448;52.034;5.158;2022-08-21T12:12:32;6.43;;;2.25;;
16669;SDS011;8448;52.034;5.158;2022-08-21T12:15:11;6.25;;;2.17;;
16669;SDS011;8448;52.034;5.158;2022-08-21T12:17:58;4.88;;;2.08;;
16669;SDS011;8448;52.034;5.158;2022-08-21T12:20:33;4.72;;;1.90;;
16669;SDS011;8448;52.034;5.158;2022-08-21T12:23:12;4.75;;;1.77;;
16669;SDS011;8448;52.034;5.158;2022-08-21T12:25:44;4.85;;;2.03;;
16669;SDS011;8448;52.034;5.158;2022-08-21T12:28:15;5.80;;;1.80;;
16669;SDS011;8448;52.034;5.158;2022-08-21T12:30:48;4.90;;;1.80;;
16669;SDS011;8448;52.034;5.158;2022-08-21T12:33:20;4.60;;;1.85;;
16669;SDS011;8448;52.034;5.158;2022-08-21T12:35:50;8.13;;;2.40;;
16669;SDS011;8448;52.034;5.158;2022-08-21T12:38:21;5.85;;;2.28;;
16669;SDS011;8448;52.034;5.158;2022-08-21T12:40:50;5.05;;;1.95;;
16669;SDS011;8448;52.034;5.158;2022-08-21T12:43:21;4.80;;;1.98;;
16669;SDS011;8448;52.034;5.158;2022-08-21T12:45:50;5.25;;;2.03;;
16669;SDS011;8448;52.034;5.158;2022-08-21T12:48:18;5.97;;;1.98;;
16669;SDS011;8448;52.034;5.158;2022-08-21T12:50:49;5.10;;;1.88;;
16669;SDS011;8448;52.034;5.158;2022-08-21T12:53:22;5.20;;;2.10;;
16669;SDS011;8448;52.034;5.158;2022-08-21T12:55:52;7.03;;;2.20;;
16669;SDS011;8448;52.034;5.158;2022-08-21T12:58:25;5.10;;;2.17;;
16669;SDS011;8448;52.034;5.158;2022-08-21T13:00:53;6.50;;;1.88;;
16669;SDS011;8448;52.034;5.158;2022-08-21T13:03:22;4.15;;;2.42;;
16669;SDS011;8448;52.034;5.158;2022-08-21T13:05:50;5.10;;;2.10;;
16669;SDS011;8448;52.034;5.158;2022-08-21T13:08:18;7.18;;;2.30;;
16669;SDS011;8448;52.034;5.158;2022-08-21T13:10:49;6.03;;;1.98;;
16669;SDS011;8448;52.034;5.158;2022-08-21T13:13:24;5.35;;;2.33;;
16669;SDS011;8448;52.034;5.158;2022-08-21T13:15:56;5.05;;;2.10;;
16669;SDS011;8448;52.034;5.158;2022-08-21T13:18:26;6.93;;;2.10;;
16669;SDS011;8448;52.034;5.158;2022-08-21T13:21:02;6.82;;;2.22;;
16669;SDS011;8448;52.034;5.158;2022-08-21T13:23:32;5.85;;;2.30;;
16669;SDS011;8448;52.034;5.158;2022-08-21T13:26:00;7.63;;;2.38;;
16669;SDS011;8448;52.034;5.158;2022-08-21T13:28:35;6.18;;;2.22;;
16669;SDS011;8448;52.034;5.158;2022-08-21T13:31:05;5.03;;;1.92;;
16669;SDS011;8448;52.034;5.158;2022-08-21T13:33:35;4.82;;;1.90;;
16669;SDS011;8448;52.034;5.158;2022-08-21T13:36:04;6.30;;;2.35;;
16669;SDS011;8448;52.034;5.158;2022-08-21T13:38:35;5.45;;;2.00;;
16669;SDS011;8448;52.034;5.158;2022-08-21T13:41:04;4.15;;;1.88;;
16669;SDS011;8448;52.034;5.158;2022-08-21T13:43:35;5.28;;;2.17;;
16669;SDS011;8448;52.034;5.158;2022-08-21T13:46:06;5.93;;;1.92;;
16669;SDS011;8448;52.034;5.158;2022-08-21T13:48:36;5.78;;;2.00;;
16669;SDS011;8448;52.034;5.158;2022-08-21T13:51:04;4.18;;;1.80;;
16669;SDS011;8448;52.034;5.158;2022-08-21T13:53:33;6.40;;;1.70;;
16669;SDS011;8448;52.034;5.158;2022-08-21T13:56:03;7.05;;;2.00;;
16669;SDS011;8448;52.034;5.158;2022-08-21T13:58:32;5.00;;;1.90;;
16669;SDS011;8448;52.034;5.158;2022-08-21T14:01:15;4.50;;;1.80;;
16669;SDS011;8448;52.034;5.158;2022-08-21T14:03:45;4.28;;;1.90;;
16669;SDS011;8448;52.034;5.158;2022-08-21T14:06:16;4.13;;;1.90;;
16669;SDS011;8448;52.034;5.158;2022-08-21T14:08:48;4.15;;;1.90;;
16669;SDS011;8448;52.034;5.158;2022-08-21T14:11:17;3.65;;;1.75;;
16669;SDS011;8448;52.034;5.158;2022-08-21T14:13:46;5.03;;;2.15;;
16669;SDS011;8448;52.034;5.158;2022-08-21T14:16:17;5.60;;;2.20;;
16669;SDS011;8448;52.034;5.158;2022-08-21T14:18:50;3.92;;;1.70;;
16669;SDS011;8448;52.034;5.158;2022-08-21T14:21:30;5.05;;;1.90;;
16669;SDS011;8448;52.034;5.158;2022-08-21T14:24:00;5.97;;;1.98;;
16669;SDS011;8448;52.034;5.158;2022-08-21T14:26:30;4.85;;;2.08;;
16669;SDS011;8448;52.034;5.158;2022-08-21T14:28:59;4.30;;;1.70;;
16669;SDS011;8448;52.034;5.158;2022-08-21T14:31:28;3.78;;;1.88;;
16669;SDS011;8448;52.034;5.158;2022-08-21T14:33:57;4.53;;;1.90;;
16669;SDS011;8448;52.034;5.158;2022-08-21T14:36:25;4.13;;;2.00;;
16669;SDS011;8448;52.034;5.158;2022-08-21T14:38:52;4.10;;;1.90;;
16669;SDS011;8448;52.034;5.158;2022-08-21T14:41:21;5.85;;;2.03;;
16669;SDS011;8448;52.034;5.158;2022-08-21T14:43:50;4.25;;;2.00;;
16669;SDS011;8448;52.034;5.158;2022-08-21T14:46:20;5.78;;;2.10;;
16669;SDS011;8448;52.034;5.158;2022-08-21T14:48:49;4.78;;;2.20;;
16669;SDS011;8448;52.034;5.158;2022-08-21T14:51:17;4.30;;;2.00;;
16669;SDS011;8448;52.034;5.158;2022-08-21T14:53:45;5.05;;;1.95;;
16669;SDS011;8448;52.034;5.158;2022-08-21T14:56:13;3.42;;;2.00;;
16669;SDS011;8448;52.034;5.158;2022-08-21T14:58:43;7.70;;;2.13;;
16669;SDS011;8448;52.034;5.158;2022-08-21T15:01:12;4.70;;;2.20;;
16669;SDS011;8448;52.034;5.158;2022-08-21T15:03:41;4.28;;;2.25;;
16669;SDS011;8448;52.034;5.158;2022-08-21T15:06:08;6.65;;;2.33;;
16669;SDS011;8448;52.034;5.158;2022-08-21T15:08:36;4.78;;;2.15;;
16669;SDS011;8448;52.034;5.158;2022-08-21T15:11:04;5.30;;;1.77;;